Time;durP1;ratioP1;P1;durP2;ratioP2;P2;SDS_P1;SDS_P2;PMS_P1;PMS_P2;Temp;Humidity;BMP_temperature;BMP_pressure;BME280_temperature;BME280_humidity;BME280_pressure;Samples;Min_cycle;Max_cycle;Signal;HPM_P1;HPM_P2
2022/05/21 00:02:48;;;;;;;5.10;2.47;;;;;;;;;;6199161;28;20232;-69
2022/05/21 00:06:09;;;;;;;5.27;2.27;;;;;;;;;;6204113;28;20233;-70
2022/05/21 00:09:30;;;;;;;4.40;1.87;;;;;;;;;;6203247;28;20229;-71
2022/05/21 00:12:50;;;;;;;2.37;1.70;;;;;;;;;;6205810;28;20237;-69
2022/05/21 00:16:11;;;;;;;6.67;2.47;;;;;;;;;;6200018;28;20233;-71
2022/05/21 00:19:33;;;;;;;7.57;2.33;;;;;;;;;;6202006;28;20225;-70
2022/05/21 00:22:54;;;;;;;3.43;2.10;;;;;;;;;;6203129;28;20261;-69
2022/05/21 00:26:15;;;;;;;3.97;2.13;;;;;;;;;;6207429;28;20233;-71
2022/05/21 00:29:36;;;;;;;10.37;2.77;;;;;;;;;;6205463;28;20556;-72
2022/05/21 00:32:57;;;;;;;3.70;2.33;;;;;;;;;;6201561;28;20229;-71
2022/05/21 00:36:19;;;;;;;6.33;2.97;;;;;;;;;;6204730;28;20620;-70
2022/05/21 00:39:40;;;;;;;4.30;2.60;;;;;;;;;;6204004;28;20233;-71
2022/05/21 00:43:00;;;;;;;4.37;2.20;;;;;;;;;;6208675;28;20493;-72
2022/05/21 00:46:22;;;;;;;4.13;2.60;;;;;;;;;;6203532;28;20245;-71
2022/05/21 00:49:42;;;;;;;4.23;2.87;;;;;;;;;;6203774;28;20260;-70
2022/05/21 00:53:04;;;;;;;4.60;2.10;;;;;;;;;;6211386;28;20257;-71
2022/05/21 00:56:26;;;;;;;3.17;2.13;;;;;;;;;;6205045;28;20233;-71
2022/05/21 00:59:51;;;;;;;6.77;3.30;;;;;;;;;;6207408;28;20234;-70
2022/05/21 01:03:13;;;;;;;3.20;2.70;;;;;;;;;;6205465;28;20233;-70
2022/05/21 01:06:34;;;;;;;2.73;2.50;;;;;;;;;;6206609;28;20225;-71
2022/05/21 01:09:56;;;;;;;5.53;3.30;;;;;;;;;;6204523;28;20568;-70
2022/05/21 01:13:19;;;;;;;4.63;2.93;;;;;;;;;;6206955;28;20221;-70
2022/05/21 01:16:41;;;;;;;5.23;2.47;;;;;;;;;;6199396;28;20354;-70
2022/05/21 01:20:04;;;;;;;6.07;2.63;;;;;;;;;;6208783;28;20225;-69
2022/05/21 01:23:26;;;;;;;4.63;2.73;;;;;;;;;;6204932;28;20228;-70
2022/05/21 01:26:47;;;;;;;3.23;2.43;;;;;;;;;;6204628;28;20662;-68
2022/05/21 01:30:09;;;;;;;3.67;2.97;;;;;;;;;;6205617;28;20217;-70
2022/05/21 01:33:31;;;;;;;7.47;3.10;;;;;;;;;;6205232;28;20234;-70
2022/05/21 01:36:52;;;;;;;6.23;2.87;;;;;;;;;;6210238;28;20512;-70
2022/05/21 01:40:14;;;;;;;5.20;2.90;;;;;;;;;;6202012;28;20225;-70
2022/05/21 01:47:15;;;;;;;5.07;2.97;;;;;;;;;;6208279;28;20228;-71
2022/05/21 01:50:36;;;;;;;2.83;2.10;;;;;;;;;;6203424;28;20237;-71
2022/05/21 01:53:57;;;;;;;4.43;2.60;;;;;;;;;;6202567;28;20245;-69
2022/05/21 01:57:18;;;;;;;3.20;2.53;;;;;;;;;;6203985;28;20237;-70
2022/05/21 02:00:40;;;;;;;4.50;3.07;;;;;;;;;;6203779;28;20229;-71
2022/05/21 02:04:01;;;;;;;2.47;2.27;;;;;;;;;;6201046;28;20229;-71
2022/05/21 02:07:21;;;;;;;3.07;2.47;;;;;;;;;;6207006;28;20232;-70
2022/05/21 02:10:43;;;;;;;3.40;3.13;;;;;;;;;;6199389;28;20244;-71
2022/05/21 02:14:05;;;;;;;6.97;3.47;;;;;;;;;;6203887;28;20498;-71
2022/05/21 02:17:26;;;;;;;4.33;3.27;;;;;;;;;;6205722;28;20229;-72
2022/05/21 02:20:48;;;;;;;5.40;3.40;;;;;;;;;;6207095;28;21006;-70
2022/05/21 02:24:08;;;;;;;5.80;3.97;;;;;;;;;;6203094;28;20241;-70
2022/05/21 02:27:29;;;;;;;4.03;3.60;;;;;;;;;;6200191;28;20904;-71
2022/05/21 02:30:51;;;;;;;3.60;3.30;;;;;;;;;;6204496;28;20243;-71
2022/05/21 02:34:12;;;;;;;6.27;3.70;;;;;;;;;;6204726;28;20226;-70
2022/05/21 02:41:11;;;;;;;2.73;2.53;;;;;;;;;;6210062;28;20213;-72
2022/05/21 02:44:32;;;;;;;4.60;2.80;;;;;;;;;;6207221;28;20233;-72
2022/05/21 02:47:54;;;;;;;3.23;2.70;;;;;;;;;;6209649;28;20233;-70
2022/05/21 02:51:15;;;;;;;8.00;3.63;;;;;;;;;;6213910;28;20237;-71
2022/05/21 02:54:36;;;;;;;4.80;3.67;;;;;;;;;;6210543;28;20225;-71
2022/05/21 02:57:56;;;;;;;4.73;2.77;;;;;;;;;;6203660;28;20233;-72
2022/05/21 03:01:17;;;;;;;3.93;3.33;;;;;;;;;;6203239;28;20607;-71
2022/05/21 03:04:39;;;;;;;3.37;3.07;;;;;;;;;;6203291;28;20261;-71
2022/05/21 03:10:20;;;;;;;4.67;3.93;;;;;;;;;;6218284;28;20226;-70
2022/05/21 03:11:40;;;;;;;4.90;3.37;;;;;;;;;;6201346;28;20229;-72
2022/05/21 03:15:01;;;;;;;7.43;4.37;;;;;;;;;;6206994;28;20221;-72
2022/05/21 03:18:23;;;;;;;4.17;3.10;;;;;;;;;;6208639;28;20237;-71
2022/05/21 03:21:45;;;;;;;3.70;3.20;;;;;;;;;;6209722;28;20256;-71
2022/05/21 03:25:08;;;;;;;5.00;3.30;;;;;;;;;;6205602;28;20236;-72
2022/05/21 03:28:29;;;;;;;3.57;2.80;;;;;;;;;;6200428;28;20234;-71
2022/05/21 03:31:50;;;;;;;5.27;3.13;;;;;;;;;;6201364;28;20321;-71
2022/05/21 03:35:12;;;;;;;2.73;2.47;;;;;;;;;;6203159;28;20676;-72
2022/05/21 03:38:34;;;;;;;6.03;2.47;;;;;;;;;;6204120;28;20225;-71
2022/05/21 03:41:55;;;;;;;4.13;2.77;;;;;;;;;;6205339;28;20617;-71
2022/05/21 03:45:16;;;;;;;3.80;3.30;;;;;;;;;;6200469;28;20229;-71
2022/05/21 03:48:37;;;;;;;4.57;3.07;;;;;;;;;;6203817;28;20244;-71
2022/05/21 03:51:57;;;;;;;4.40;3.30;;;;;;;;;;6206697;28;20356;-71
2022/05/21 03:55:20;;;;;;;6.73;3.53;;;;;;;;;;6205977;28;20225;-70
2022/05/21 03:58:40;;;;;;;2.70;2.27;;;;;;;;;;6208698;28;20233;-70
2022/05/21 04:02:02;;;;;;;4.77;3.30;;;;;;;;;;6201992;28;20233;-72
2022/05/21 04:05:22;;;;;;;5.00;3.73;;;;;;;;;;6208497;28;20233;-70
2022/05/21 04:08:42;;;;;;;4.00;3.63;;;;;;;;;;6204331;28;20260;-69
2022/05/21 04:12:05;;;;;;;6.73;4.70;;;;;;;;;;6206730;28;20528;-71
2022/05/21 04:15:26;;;;;;;5.03;4.40;;;;;;;;;;6203429;28;20350;-72
2022/05/21 04:18:47;;;;;;;4.53;4.00;;;;;;;;;;6206335;28;20241;-71
2022/05/21 04:22:08;;;;;;;7.93;4.70;;;;;;;;;;6207645;28;20225;-73
2022/05/21 04:25:29;;;;;;;5.17;4.67;;;;;;;;;;6208475;28;20229;-72
2022/05/21 04:28:50;;;;;;;8.23;5.40;;;;;;;;;;6204070;28;20245;-71
2022/05/21 04:32:11;;;;;;;7.27;5.50;;;;;;;;;;6206840;28;20686;-71
2022/05/21 04:39:07;;;;;;;8.37;6.23;;;;;;;;;;6210748;28;20225;-71
2022/05/21 04:42:28;;;;;;;8.43;7.63;;;;;;;;;;6211497;28;20233;-72
2022/05/21 04:45:50;;;;;;;10.70;9.37;;;;;;;;;;6206059;28;20225;-71
2022/05/21 04:49:10;;;;;;;10.17;9.27;;;;;;;;;;6200252;28;20233;-71
2022/05/21 04:52:31;;;;;;;9.83;9.00;;;;;;;;;;6209507;28;20229;-70
2022/05/21 04:55:52;;;;;;;15.03;12.40;;;;;;;;;;6206747;28;20233;-68
2022/05/21 04:59:13;;;;;;;12.00;10.67;;;;;;;;;;6196382;28;20859;-72
2022/05/21 05:02:34;;;;;;;12.67;11.47;;;;;;;;;;6198268;28;20320;-72
2022/05/21 05:05:55;;;;;;;14.27;12.97;;;;;;;;;;6200709;28;20233;-72
2022/05/21 05:09:19;;;;;;;14.20;12.97;;;;;;;;;;6200676;28;20233;-71
2022/05/21 05:12:40;;;;;;;16.20;14.80;;;;;;;;;;6200421;28;20233;-72
2022/05/21 05:16:01;;;;;;;15.27;13.83;;;;;;;;;;6200202;28;20236;-71
2022/05/21 05:19:22;;;;;;;15.70;14.10;;;;;;;;;;6207068;28;20323;-72
2022/05/21 05:22:43;;;;;;;17.40;14.30;;;;;;;;;;6205501;28;20316;-73
2022/05/21 05:26:03;;;;;;;16.80;15.20;;;;;;;;;;6205934;28;20232;-73
2022/05/21 05:29:24;;;;;;;18.13;16.20;;;;;;;;;;6199546;28;20265;-71
2022/05/21 05:32:45;;;;;;;15.10;13.70;;;;;;;;;;6199581;28;20229;-71
2022/05/21 05:36:07;;;;;;;19.77;16.60;;;;;;;;;;6196465;28;20257;-70
2022/05/21 05:39:30;;;;;;;19.27;17.37;;;;;;;;;;6198584;28;20533;-71
2022/05/21 05:42:51;;;;;;;19.37;17.27;;;;;;;;;;6204249;28;20228;-72
2022/05/21 05:46:11;;;;;;;17.73;16.17;;;;;;;;;;6188633;28;20260;-71
2022/05/21 05:49:32;;;;;;;18.17;16.70;;;;;;;;;;6198947;28;20233;-73
2022/05/21 05:52:54;;;;;;;19.20;17.47;;;;;;;;;;6198694;28;20232;-71
2022/05/21 05:56:15;;;;;;;18.83;17.03;;;;;;;;;;6198488;28;20728;-70
2022/05/21 05:59:51;;;;;;;20.27;18.27;;;;;;;;;;6200158;28;20225;-72
2022/05/21 06:03:12;;;;;;;16.87;15.17;;;;;;;;;;6190703;28;20225;-71
2022/05/21 06:06:32;;;;;;;18.33;15.87;;;;;;;;;;6199200;28;22195;-71
2022/05/21 06:10:01;;;;;;;18.40;16.73;;;;;;;;;;6193696;28;20316;-70
2022/05/21 06:13:21;;;;;;;17.47;16.07;;;;;;;;;;6204157;28;20236;-71
2022/05/21 06:16:42;;;;;;;20.80;17.60;;;;;;;;;;6198267;28;20229;-70
2022/05/21 06:20:03;;;;;;;18.40;16.57;;;;;;;;;;6204739;28;20226;-70
2022/05/21 06:23:24;;;;;;;17.93;16.13;;;;;;;;;;6199894;28;20221;-72
2022/05/21 06:26:46;;;;;;;20.43;18.57;;;;;;;;;;6209322;28;20324;-70
2022/05/21 06:30:09;;;;;;;18.67;16.80;;;;;;;;;;6204388;28;20490;-71
2022/05/21 06:33:31;;;;;;;20.70;18.80;;;;;;;;;;6206741;28;20594;-71
2022/05/21 06:36:51;;;;;;;21.03;18.93;;;;;;;;;;6206215;28;20337;-71
2022/05/21 06:40:13;;;;;;;21.53;19.37;;;;;;;;;;6201698;28;20221;-71
2022/05/21 06:43:35;;;;;;;20.53;18.60;;;;;;;;;;6197591;28;20499;-71
2022/05/21 06:46:56;;;;;;;21.83;19.93;;;;;;;;;;6196894;28;20225;-72
2022/05/21 06:50:17;;;;;;;21.07;19.07;;;;;;;;;;6199264;28;21672;-72
2022/05/21 06:53:37;;;;;;;21.93;19.93;;;;;;;;;;6205378;28;20229;-71
2022/05/21 06:56:58;;;;;;;22.47;20.47;;;;;;;;;;6204124;28;20337;-71
2022/05/21 07:00:22;;;;;;;22.47;19.40;;;;;;;;;;6192997;28;20229;-73
2022/05/21 07:03:42;;;;;;;21.57;19.53;;;;;;;;;;6194559;28;20316;-72
2022/05/21 07:10:41;;;;;;;21.20;19.17;;;;;;;;;;6194514;28;20902;-72
2022/05/21 07:14:02;;;;;;;19.77;17.73;;;;;;;;;;6192569;28;20224;-72
2022/05/21 07:17:23;;;;;;;21.00;19.10;;;;;;;;;;6193185;28;20289;-70
2022/05/21 07:20:44;;;;;;;20.67;18.73;;;;;;;;;;6198331;28;20961;-72
2022/05/21 07:24:05;;;;;;;20.53;18.83;;;;;;;;;;6194393;28;20643;-71
2022/05/21 07:27:26;;;;;;;20.10;17.83;;;;;;;;;;6197877;28;20228;-70
2022/05/21 07:30:47;;;;;;;17.90;16.07;;;;;;;;;;6197361;28;20233;-71
2022/05/21 07:34:10;;;;;;;17.70;16.20;;;;;;;;;;6209837;28;20263;-70
2022/05/21 07:37:30;;;;;;;17.33;15.67;;;;;;;;;;6211621;28;20324;-71
2022/05/21 07:40:52;;;;;;;18.53;16.70;;;;;;;;;;6208884;28;20252;-71
2022/05/21 07:44:12;;;;;;;16.47;14.97;;;;;;;;;;6205028;28;20686;-71
2022/05/21 07:47:35;;;;;;;17.50;15.80;;;;;;;;;;6201452;28;20237;-71
2022/05/21 07:50:58;;;;;;;19.10;15.27;;;;;;;;;;6209389;28;20229;-71
2022/05/21 07:54:21;;;;;;;16.97;14.53;;;;;;;;;;6209547;28;20225;-71
2022/05/21 07:57:41;;;;;;;15.27;13.57;;;;;;;;;;6204293;28;20228;-73
2022/05/21 08:01:01;;;;;;;13.77;12.40;;;;;;;;;;6202530;28;20256;-71
2022/05/21 08:04:22;;;;;;;14.13;12.77;;;;;;;;;;6207281;28;20248;-72
2022/05/21 08:07:49;;;;;;;13.53;11.50;;;;;;;;;;6201475;28;20229;-73
2022/05/21 08:11:09;;;;;;;14.57;13.17;;;;;;;;;;6201358;28;20240;-71
2022/05/21 08:14:31;;;;;;;13.30;12.20;;;;;;;;;;6199513;28;20303;-70
2022/05/21 08:17:52;;;;;;;16.40;11.87;;;;;;;;;;6194244;28;20312;-70
2022/05/21 08:21:12;;;;;;;10.20;9.20;;;;;;;;;;6190932;28;20248;-70
2022/05/21 08:28:14;;;;;;;13.90;11.43;;;;;;;;;;6210383;28;20237;-70
2022/05/21 08:31:34;;;;;;;11.13;9.23;;;;;;;;;;6202305;28;20241;-71
2022/05/21 08:34:55;;;;;;;8.10;7.07;;;;;;;;;;6197269;28;20237;-71
2022/05/21 08:38:16;;;;;;;7.97;5.90;;;;;;;;;;6197823;28;20229;-72
2022/05/21 08:41:44;;;;;;;7.70;6.13;;;;;;;;;;6207135;28;20295;-70
2022/05/21 08:45:14;;;;;;;7.33;4.47;;;;;;;;;;6207799;28;20641;-72
2022/05/21 08:48:36;;;;;;;5.67;4.17;;;;;;;;;;6205770;28;20240;-72
2022/05/21 08:51:59;;;;;;;8.90;3.90;;;;;;;;;;6211212;28;20264;-73
2022/05/21 08:55:27;;;;;;;4.23;2.50;;;;;;;;;;6201636;28;20225;-74
2022/05/21 08:58:51;;;;;;;2.40;2.10;;;;;;;;;;6203137;28;20248;-70
2022/05/21 09:02:14;;;;;;;4.60;2.20;;;;;;;;;;6177663;28;20237;-74
2022/05/21 09:05:36;;;;;;;3.80;1.60;;;;;;;;;;6192081;28;20236;-75
2022/05/21 09:09:01;;;;;;;3.33;2.17;;;;;;;;;;6202406;28;20245;-73
2022/05/21 09:12:23;;;;;;;2.07;1.87;;;;;;;;;;6203842;28;20241;-75
2022/05/21 09:19:24;;;;;;;6.07;2.10;;;;;;;;;;6193967;28;20225;-71
2022/05/21 09:22:53;;;;;;;6.37;2.63;;;;;;;;;;6186874;28;20319;-69
2022/05/21 09:26:14;;;;;;;3.87;1.73;;;;;;;;;;6200641;28;20320;-69
2022/05/21 09:29:37;;;;;;;6.40;2.30;;;;;;;;;;6207460;28;20229;-70
2022/05/21 09:33:00;;;;;;;6.53;2.43;;;;;;;;;;6201991;28;20225;-69
2022/05/21 09:36:31;;;;;;;6.30;2.03;;;;;;;;;;6210487;28;20229;-70
2022/05/21 09:39:52;;;;;;;4.37;2.30;;;;;;;;;;6203744;28;20232;-71
2022/05/21 09:47:09;;;;;;;5.20;1.90;;;;;;;;;;6202769;28;20221;-71
2022/05/21 09:50:42;;;;;;;3.97;1.83;;;;;;;;;;6205240;28;20229;-69
2022/05/21 09:54:18;;;;;;;3.60;1.37;;;;;;;;;;6201677;28;20594;-70
2022/05/21 09:57:39;;;;;;;4.10;1.53;;;;;;;;;;6205866;28;20232;-70
2022/05/21 10:01:00;;;;;;;5.80;1.87;;;;;;;;;;6203405;28;20348;-70
2022/05/21 10:04:23;;;;;;;4.47;3.10;;;;;;;;;;6192249;28;20253;-70
2022/05/21 10:11:27;;;;;;;6.33;1.47;;;;;;;;;;6204212;28;20399;-71
2022/05/21 10:14:50;;;;;;;6.10;3.23;;;;;;;;;;6206912;28;20304;-69
2022/05/21 10:18:14;;;;;;;4.57;1.63;;;;;;;;;;6206549;28;20571;-71
2022/05/21 10:21:42;;;;;;;5.83;1.87;;;;;;;;;;6211424;28;20717;-70
2022/05/21 10:25:06;;;;;;;7.50;3.33;;;;;;;;;;6210423;28;20661;-70
2022/05/21 10:28:35;;;;;;;4.22;1.73;;;;;;;;;;6207345;28;20229;-71
2022/05/21 10:32:02;;;;;;;3.05;1.65;;;;;;;;;;6209373;28;20228;-71
2022/05/21 10:35:33;;;;;;;6.83;2.00;;;;;;;;;;6212226;28;20244;-72
2022/05/21 10:39:11;;;;;;;4.65;2.22;;;;;;;;;;6208614;28;20233;-72
2022/05/21 10:42:37;;;;;;;4.75;1.80;;;;;;;;;;6205674;28;20241;-69
2022/05/21 10:46:04;;;;;;;4.57;1.73;;;;;;;;;;6204581;28;20230;-72
2022/05/21 10:49:36;;;;;;;6.33;1.83;;;;;;;;;;6208335;28;20241;-70
2022/05/21 10:53:15;;;;;;;6.40;1.60;;;;;;;;;;6205092;28;20252;-71
2022/05/21 10:56:41;;;;;;;7.17;2.30;;;;;;;;;;6206079;28;20500;-70
2022/05/21 11:00:07;;;;;;;3.57;1.70;;;;;;;;;;6207338;28;20241;-71
2022/05/21 11:03:40;;;;;;;5.33;1.83;;;;;;;;;;6204661;28;20746;-71
2022/05/21 11:07:10;;;;;;;4.67;1.53;;;;;;;;;;6207056;28;20228;-70
2022/05/21 11:10:33;;;;;;;7.43;2.63;;;;;;;;;;6208283;28;20237;-70
2022/05/21 11:13:58;;;;;;;4.40;1.60;;;;;;;;;;6210882;28;20958;-70
2022/05/21 11:17:28;;;;;;;3.78;1.42;;;;;;;;;;6204159;28;20263;-70
2022/05/21 11:20:55;;;;;;;3.30;1.20;;;;;;;;;;6205227;28;20232;-72
2022/05/21 11:24:18;;;;;;;3.25;1.77;;;;;;;;;;6208744;28;20352;-70
2022/05/21 11:27:42;;;;;;;5.55;1.70;;;;;;;;;;6209275;28;20245;-70
2022/05/21 11:31:09;;;;;;;7.40;4.32;;;;;;;;;;6206535;28;20236;-70
2022/05/21 11:38:14;;;;;;;6.47;1.65;;;;;;;;;;6206711;28;20234;-70
2022/05/21 11:41:54;;;;;;;5.80;1.65;;;;;;;;;;6207788;28;20241;-70
2022/05/21 11:45:21;;;;;;;3.10;1.60;;;;;;;;;;6207415;28;20628;-71
2022/05/21 11:48:43;;;;;;;4.88;1.65;;;;;;;;;;6209047;28;20236;-71
2022/05/21 11:52:23;;;;;;;4.10;1.92;;;;;;;;;;6207635;28;20237;-70
2022/05/21 11:55:58;;;;;;;7.65;2.92;;;;;;;;;;6209152;28;20229;-70
2022/05/21 11:59:20;;;;;;;3.42;2.05;;;;;;;;;;6207451;28;20275;-70
2022/05/21 12:03:02;;;;;;;7.00;2.10;;;;;;;;;;6203964;28;20233;-71
2022/05/21 12:06:31;;;;;;;5.50;1.77;;;;;;;;;;6200106;28;20312;-70
2022/05/21 12:10:01;;;;;;;5.55;2.40;;;;;;;;;;6194511;28;20236;-69
2022/05/21 12:13:22;;;;;;;2.00;1.00;;;;;;;;;;6200193;28;20237;-64
2022/05/21 12:16:45;;;;;;;6.75;2.15;;;;;;;;;;6197518;28;20229;-63
2022/05/21 12:20:10;;;;;;;3.00;1.48;;;;;;;;;;6198254;28;20598;-66
2022/05/21 12:23:51;;;;;;;10.35;1.98;;;;;;;;;;6206117;28;20225;-65
2022/05/21 12:27:21;;;;;;;4.90;2.00;;;;;;;;;;6200444;28;20229;-65
2022/05/21 12:30:42;;;;;;;4.90;2.08;;;;;;;;;;6207373;28;20237;-66
2022/05/21 12:34:12;;;;;;;2.10;1.13;;;;;;;;;;6201792;28;20237;-65
2022/05/21 12:37:35;;;;;;;5.30;2.67;;;;;;;;;;6206766;28;20241;-64
2022/05/21 12:41:02;;;;;;;3.42;1.48;;;;;;;;;;6208053;28;20241;-64
2022/05/21 12:44:37;;;;;;;3.63;1.40;;;;;;;;;;6213910;28;20225;-64
2022/05/21 12:48:04;;;;;;;4.53;1.38;;;;;;;;;;6195888;28;20512;-64
2022/05/21 12:51:28;;;;;;;3.40;1.50;;;;;;;;;;6206928;28;20605;-64
2022/05/21 12:54:49;;;;;;;6.25;2.25;;;;;;;;;;6202382;28;20245;-65
2022/05/21 12:58:18;;;;;;;4.80;1.58;;;;;;;;;;6199865;28;20257;-64
2022/05/21 13:01:46;;;;;;;3.45;1.33;;;;;;;;;;6207838;28;20233;-66
2022/05/21 13:05:07;;;;;;;4.13;2.60;;;;;;;;;;6206428;28;20553;-65
2022/05/21 13:08:29;;;;;;;4.97;1.73;;;;;;;;;;6203868;28;20558;-66
2022/05/21 13:11:50;;;;;;;6.50;3.47;;;;;;;;;;6194396;28;20257;-65
2022/05/21 13:15:12;;;;;;;7.20;5.30;;;;;;;;;;6204925;28;20228;-66
2022/05/21 13:18:47;;;;;;;4.18;1.20;;;;;;;;;;6208289;28;20225;-66
2022/05/21 13:22:11;;;;;;;5.43;1.70;;;;;;;;;;6200759;28;20234;-65
2022/05/21 13:25:32;;;;;;;8.10;2.05;;;;;;;;;;6199502;28;20489;-65
2022/05/21 13:29:11;;;;;;;5.07;1.88;;;;;;;;;;6208296;28;20229;-65
2022/05/21 13:32:32;;;;;;;6.13;1.05;;;;;;;;;;6202573;28;20255;-65
2022/05/21 13:35:55;;;;;;;2.92;1.60;;;;;;;;;;6202470;28;20928;-65
2022/05/21 13:39:20;;;;;;;5.80;1.92;;;;;;;;;;6206071;28;20233;-65
2022/05/21 13:42:42;;;;;;;5.63;1.42;;;;;;;;;;6205281;28;20229;-65
2022/05/21 13:46:03;;;;;;;5.60;2.03;;;;;;;;;;6189346;28;20261;-65
2022/05/21 13:49:31;;;;;;;5.88;1.98;;;;;;;;;;6203409;28;20229;-64
2022/05/21 13:52:53;;;;;;;5.10;1.73;;;;;;;;;;6192796;28;20924;-65
2022/05/21 13:56:30;;;;;;;5.75;2.13;;;;;;;;;;6203053;28;20305;-64
2022/05/21 13:59:52;;;;;;;4.75;1.55;;;;;;;;;;6205083;28;20241;-65
2022/05/21 14:03:20;;;;;;;3.05;1.60;;;;;;;;;;6204401;28;20233;-64
2022/05/21 14:06:42;;;;;;;4.00;1.83;;;;;;;;;;6204084;28;20693;-63
2022/05/21 14:10:05;;;;;;;6.40;2.13;;;;;;;;;;6198743;28;20547;-65
2022/05/21 14:13:29;;;;;;;4.53;2.25;;;;;;;;;;6207923;28;20522;-64
2022/05/21 14:16:52;;;;;;;4.38;1.60;;;;;;;;;;6204909;28;20237;-64
2022/05/21 14:20:23;;;;;;;4.40;1.90;;;;;;;;;;6199345;28;20494;-65
2022/05/21 14:23:44;;;;;;;3.85;1.23;;;;;;;;;;6204165;28;20620;-66
2022/05/21 14:27:19;;;;;;;3.88;1.77;;;;;;;;;;6207981;28;20237;-64
2022/05/21 14:30:41;;;;;;;4.00;1.85;;;;;;;;;;6203054;28;20242;-65
2022/05/21 14:34:03;;;;;;;4.32;1.83;;;;;;;;;;6206058;28;20311;-65
2022/05/21 14:37:24;;;;;;;5.30;1.92;;;;;;;;;;6206627;28;20671;-65
2022/05/21 14:40:46;;;;;;;4.70;1.70;;;;;;;;;;6203076;28;20648;-64
2022/05/21 14:44:14;;;;;;;4.63;1.40;;;;;;;;;;6205250;28;20645;-64
2022/05/21 14:47:53;;;;;;;7.60;1.63;;;;;;;;;;6199652;28;20355;-66
2022/05/21 14:54:53;;;;;;;4.18;1.70;;;;;;;;;;6204550;28;20236;-65
2022/05/21 14:58:13;;;;;;;3.78;1.23;;;;;;;;;;6199220;28;20237;-64
2022/05/21 15:01:35;;;;;;;2.25;1.45;;;;;;;;;;6200671;28;20237;-64
2022/05/21 15:04:57;;;;;;;2.63;1.02;;;;;;;;;;6199891;28;20237;-65
2022/05/21 15:08:20;;;;;;;5.35;1.52;;;;;;;;;;6204937;28;20543;-65
2022/05/21 15:11:42;;;;;;;3.13;1.02;;;;;;;;;;6204401;28;20225;-65
2022/05/21 15:15:03;;;;;;;3.40;1.60;;;;;;;;;;6204629;28;20672;-66
2022/05/21 15:18:25;;;;;;;5.20;1.52;;;;;;;;;;6204850;28;20229;-65
2022/05/21 15:21:46;;;;;;;5.57;2.45;;;;;;;;;;6202501;28;20233;-65
2022/05/21 15:25:08;;;;;;;5.40;2.35;;;;;;;;;;6204347;28;20233;-65
2022/05/21 15:28:31;;;;;;;3.35;1.55;;;;;;;;;;6199283;28;20229;-67
2022/05/21 15:31:53;;;;;;;5.65;1.98;;;;;;;;;;6198234;28;20611;-65
2022/05/21 15:35:16;;;;;;;3.70;1.33;;;;;;;;;;6204828;28;20237;-65
2022/05/21 15:38:37;;;;;;;3.80;1.85;;;;;;;;;;6202533;28;20229;-65
2022/05/21 15:41:57;;;;;;;4.75;1.70;;;;;;;;;;6206227;28;20214;-65
2022/05/21 15:45:17;;;;;;;6.40;2.35;;;;;;;;;;6202275;28;20291;-68
2022/05/21 15:48:38;;;;;;;4.00;2.08;;;;;;;;;;6182642;28;20225;-69
2022/05/21 15:52:03;;;;;;;6.13;2.92;;;;;;;;;;6196332;28;20229;-69
2022/05/21 15:55:26;;;;;;;5.50;2.25;;;;;;;;;;6188985;28;20673;-70
2022/05/21 15:58:47;;;;;;;6.85;3.08;;;;;;;;;;6199245;28;20235;-72
2022/05/21 16:02:11;;;;;;;35.67;12.20;;;;;;;;;;6198854;28;20228;-74
2022/05/21 16:05:32;;;;;;;19.75;6.93;;;;;;;;;;6194439;28;20312;-68
2022/05/21 16:08:54;;;;;;;11.77;3.10;;;;;;;;;;6205423;28;20508;-71
2022/05/21 16:12:14;;;;;;;582.60;519.50;;;;;;;;;;6184008;28;20241;-68
2022/05/21 16:15:38;;;;;;;660.75;518.38;;;;;;;;;;6201022;28;20248;-74
2022/05/21 16:18:59;;;;;;;417.30;364.55;;;;;;;;;;6196525;28;20233;-69
2022/05/21 16:22:21;;;;;;;23.88;21.48;;;;;;;;;;6191189;28;20261;-69
2022/05/21 16:25:43;;;;;;;9.77;7.28;;;;;;;;;;6198735;28;20277;-69
2022/05/21 16:29:03;;;;;;;8.10;3.85;;;;;;;;;;6192314;28;20256;-68
2022/05/21 16:32:24;;;;;;;7.50;2.80;;;;;;;;;;6190239;28;20225;-68
2022/05/21 16:35:46;;;;;;;7.22;3.05;;;;;;;;;;6193244;28;20241;-68
2022/05/21 16:39:07;;;;;;;6.75;1.88;;;;;;;;;;6198120;28;20229;-69
2022/05/21 16:42:28;;;;;;;3.58;1.85;;;;;;;;;;6187189;28;20233;-68
2022/05/21 16:45:49;;;;;;;6.05;1.73;;;;;;;;;;6194927;28;20907;-69
2022/05/21 16:49:10;;;;;;;4.95;2.33;;;;;;;;;;6196860;28;20241;-70
2022/05/21 16:52:31;;;;;;;4.38;1.60;;;;;;;;;;6195408;28;20689;-68
2022/05/21 16:55:51;;;;;;;4.18;1.80;;;;;;;;;;6200278;28;20232;-68
2022/05/21 16:59:15;;;;;;;5.57;1.92;;;;;;;;;;6198349;28;20237;-69
2022/05/21 17:02:36;;;;;;;4.20;1.48;;;;;;;;;;6194214;28;22939;-68
2022/05/21 17:05:56;;;;;;;4.57;2.17;;;;;;;;;;6189822;28;20279;-69
2022/05/21 17:09:17;;;;;;;4.40;1.65;;;;;;;;;;6185852;28;20257;-68
2022/05/21 17:12:38;;;;;;;6.38;2.15;;;;;;;;;;6190862;28;20236;-67
2022/05/21 17:16:00;;;;;;;3.58;1.20;;;;;;;;;;6189153;28;20325;-68
2022/05/21 17:19:21;;;;;;;4.43;1.58;;;;;;;;;;6195794;28;20232;-68
2022/05/21 17:22:41;;;;;;;4.03;1.88;;;;;;;;;;6190721;28;20244;-67
2022/05/21 17:26:03;;;;;;;8.00;2.03;;;;;;;;;;6185383;28;20229;-69
2022/05/21 17:33:07;;;;;;;3.13;1.38;;;;;;;;;;6182059;28;20237;-69
2022/05/21 17:36:28;;;;;;;4.97;1.75;;;;;;;;;;6186250;28;20233;-69
2022/05/21 17:39:48;;;;;;;6.63;1.92;;;;;;;;;;6202031;28;20229;-67
2022/05/21 17:43:09;;;;;;;6.15;2.70;;;;;;;;;;6195742;28;20240;-67
2022/05/21 17:46:30;;;;;;;6.50;2.80;;;;;;;;;;6198303;28;20675;-68
2022/05/21 17:49:54;;;;;;;5.25;2.08;;;;;;;;;;6198671;28;20225;-68
2022/05/21 17:53:16;;;;;;;5.82;1.45;;;;;;;;;;6199731;28;20240;-68
2022/05/21 17:56:36;;;;;;;3.58;1.55;;;;;;;;;;6200762;28;20252;-67
2022/05/21 17:59:57;;;;;;;4.65;1.92;;;;;;;;;;6192773;28;20308;-67
2022/05/21 18:03:21;;;;;;;5.40;2.55;;;;;;;;;;6199608;28;20281;-69
2022/05/21 18:06:43;;;;;;;5.70;1.87;;;;;;;;;;6196759;28;20233;-69
2022/05/21 18:10:04;;;;;;;4.82;1.60;;;;;;;;;;6198579;28;20225;-69
2022/05/21 18:13:25;;;;;;;5.80;2.37;;;;;;;;;;6197297;28;20230;-68
2022/05/21 18:20:24;;;;;;;7.57;2.78;;;;;;;;;;6197889;28;20228;-68
2022/05/21 18:23:46;;;;;;;6.37;1.60;;;;;;;;;;6203487;28;20225;-68
2022/05/21 18:27:07;;;;;;;4.83;2.47;;;;;;;;;;6205581;28;21082;-68
2022/05/21 18:30:29;;;;;;;6.03;1.90;;;;;;;;;;6197671;28;20233;-68
2022/05/21 18:33:51;;;;;;;5.67;2.50;;;;;;;;;;6203925;28;20243;-69
2022/05/21 18:37:12;;;;;;;4.37;1.90;;;;;;;;;;6196466;28;20226;-69
2022/05/21 18:40:34;;;;;;;8.67;2.50;;;;;;;;;;6199073;28;20256;-69
2022/05/21 18:43:55;;;;;;;9.00;2.57;;;;;;;;;;6195742;28;21155;-69
2022/05/21 18:47:16;;;;;;;7.70;2.60;;;;;;;;;;6200100;28;20308;-68
2022/05/21 18:50:37;;;;;;;5.20;2.30;;;;;;;;;;6200971;28;21407;-68
2022/05/21 18:53:58;;;;;;;8.13;2.07;;;;;;;;;;6199439;28;20247;-68
2022/05/21 18:57:20;;;;;;;5.83;1.60;;;;;;;;;;6204160;28;20785;-68
2022/05/21 19:00:42;;;;;;;3.77;2.00;;;;;;;;;;6196499;28;20229;-68
2022/05/21 19:04:06;;;;;;;6.80;2.17;;;;;;;;;;6201595;28;20241;-68
2022/05/21 19:07:27;;;;;;;6.60;2.37;;;;;;;;;;6198008;28;20272;-68
2022/05/21 19:10:49;;;;;;;6.17;2.13;;;;;;;;;;6195693;28;20225;-68
2022/05/21 19:14:14;;;;;;;5.97;2.40;;;;;;;;;;6199747;28;20613;-68
2022/05/21 19:17:35;;;;;;;4.83;2.13;;;;;;;;;;6200136;28;20240;-68
2022/05/21 19:20:55;;;;;;;5.33;1.80;;;;;;;;;;6203988;28;20229;-68
2022/05/21 19:24:17;;;;;;;10.47;3.00;;;;;;;;;;6201237;28;20230;-67
2022/05/21 19:27:38;;;;;;;6.60;2.63;;;;;;;;;;6202131;28;20538;-70
2022/05/21 19:31:00;;;;;;;5.57;2.87;;;;;;;;;;6202468;28;20250;-68
2022/05/21 19:34:21;;;;;;;6.50;2.43;;;;;;;;;;6204092;28;20678;-67
2022/05/21 19:37:41;;;;;;;5.83;2.67;;;;;;;;;;6203274;28;20253;-68
2022/05/21 19:41:15;;;;;;;6.73;2.77;;;;;;;;;;6203536;28;20601;-68
2022/05/21 19:44:37;;;;;;;6.27;2.40;;;;;;;;;;6203368;28;20591;-68
2022/05/21 19:47:59;;;;;;;8.93;2.80;;;;;;;;;;6199626;28;20268;-69
2022/05/21 19:51:20;;;;;;;6.23;2.40;;;;;;;;;;6208383;28;20245;-69
2022/05/21 19:54:44;;;;;;;5.97;2.37;;;;;;;;;;6199002;28;20229;-68
2022/05/21 19:58:05;;;;;;;5.77;2.23;;;;;;;;;;6198164;28;20831;-69
2022/05/21 20:01:25;;;;;;;4.90;2.20;;;;;;;;;;6199390;28;20233;-67
2022/05/21 20:04:48;;;;;;;5.33;2.13;;;;;;;;;;6199206;28;20230;-70
2022/05/21 20:08:09;;;;;;;5.93;3.37;;;;;;;;;;6200946;28;20245;-68
2022/05/21 20:11:30;;;;;;;7.90;2.13;;;;;;;;;;6202525;28;20245;-70
2022/05/21 20:14:50;;;;;;;6.70;2.47;;;;;;;;;;6199043;28;20312;-68
2022/05/21 20:18:11;;;;;;;6.57;3.10;;;;;;;;;;6198417;28;20232;-73
2022/05/21 20:21:35;;;;;;;6.13;2.50;;;;;;;;;;6198554;28;20236;-70
2022/05/21 20:24:55;;;;;;;8.60;3.87;;;;;;;;;;6200439;28;20650;-69
2022/05/21 20:28:16;;;;;;;6.93;2.60;;;;;;;;;;6201939;28;20237;-69
2022/05/21 20:31:37;;;;;;;11.37;3.83;;;;;;;;;;6196893;28;20225;-70
2022/05/21 20:34:58;;;;;;;6.87;2.40;;;;;;;;;;6199769;28;20237;-70
2022/05/21 20:38:20;;;;;;;9.47;3.43;;;;;;;;;;6200065;28;20621;-69
2022/05/21 20:41:42;;;;;;;8.27;3.27;;;;;;;;;;6198762;28;20255;-69
2022/05/21 20:45:02;;;;;;;6.33;3.00;;;;;;;;;;6198746;28;20247;-70
2022/05/21 20:52:01;;;;;;;5.73;2.50;;;;;;;;;;6197574;28;20225;-69
2022/05/21 20:55:23;;;;;;;5.10;2.50;;;;;;;;;;6189957;28;20233;-70
2022/05/21 20:58:43;;;;;;;7.73;3.17;;;;;;;;;;6195268;28;20233;-69